Portada
METAR-TAF:

METAR-TAF

Aeropuertos :

Recife, Pernambuco, Brasil

Aeropuerto Internacional de Recife

latitud: 08-08S, longitud: 034-55W, altitud: 19 m

Observación

El informe se hizo hace 25 minutos, a las 00:00 UTC
Viento 7 kt del este
Temperatura 26°C
Humedad 79%
Presión 1012 hPa
Visibilidad 10 km o más
Nubes dispersas a una altura de 2300 ft

METAR: SBRF 200000Z 10007KT 9999 SCT023 26/22 Q1012

Hora: 21:25 (00:25 UTC)

Pronóstico

El informe se hizo hace 2 horas y 25 minutos, a las 22:00 UTC
Pronóstico válido del 20 a las 00 UTC al 20 a las 24 UTC
Viento 8 kt del este-sureste
Visibilidad: 9000 m
Nubes dispersas a una altura de 2500 ft

TAF: SBRF 192200Z 2000/2024 11008KT 9000 SCT025 TN25/2007Z TX29/2015Z RMK PEA

Observaciones y pronósticos meteorológicos de más de 4000 aeropuertos (mensajes METAR y TAF).

Los puntos amarillos y rojos representan las estaciones disponibles.

Ponga el ratón en el punto deseado para ver el nombre de la estación.

Haga clic para ver las observaciones y los pronósticos meteorológicos.

Para cambiar el mapa : haga clic en los botones verdes con una cruz de color negro para hacer un zoom, en el botón verde con un guión para alejar o en las flechas verdes para mapas adyacentes.


METAR-TAF: